Time;durP1;ratioP1;P1;durP2;ratioP2;P2;SDS_P1;SDS_P2;PMS_P1;PMS_P2;Temp;Humidity;BMP_temperature;BMP_pressure;BME280_temperature;BME280_humidity;BME280_pressure;Samples;Min_cycle;Max_cycle;Signal;HPM_P1;HPM_P2
2023/08/30 00:00:39;;;;;;;8.45;3.53;;;17.10;97.80;;;;;;4264459;27;20159;-57
2023/08/30 00:02:41;;;;;;;7.18;3.22;;;17.10;97.80;;;;;;4264401;27;20050;-56
2023/08/30 00:04:44;;;;;;;5.43;2.55;;;17.10;97.80;;;;;;4264735;27;20046;-57
2023/08/30 00:06:47;;;;;;;3.95;2.80;;;17.00;97.80;;;;;;4263121;27;20052;-57
2023/08/30 00:08:49;;;;;;;4.35;2.70;;;17.00;97.90;;;;;;4264211;27;20107;-56
2023/08/30 00:10:51;;;;;;;4.93;2.85;;;17.00;97.90;;;;;;4264527;27;20050;-59
2023/08/30 00:12:53;;;;;;;7.75;3.17;;;17.00;98.00;;;;;;4264553;27;20099;-56
2023/08/30 00:14:56;;;;;;;5.95;3.22;;;17.00;98.00;;;;;;4259550;27;20096;-57
2023/08/30 00:16:58;;;;;;;6.07;3.42;;;16.90;98.00;;;;;;4246248;28;20484;-56
2023/08/30 00:19:00;;;;;;;5.68;2.92;;;17.00;98.00;;;;;;4247088;28;20122;-56
2023/08/30 00:21:03;;;;;;;5.80;3.60;;;17.00;98.10;;;;;;4246855;28;20051;-57
2023/08/30 00:23:06;;;;;;;5.43;3.10;;;17.00;98.00;;;;;;4229114;28;20285;-58
2023/08/30 00:25:09;;;;;;;4.78;3.03;;;17.00;98.10;;;;;;4248194;27;20043;-56
2023/08/30 00:27:12;;;;;;;5.93;3.63;;;17.00;98.20;;;;;;4251258;27;20046;-57
2023/08/30 00:29:14;;;;;;;7.63;3.58;;;17.00;98.30;;;;;;4250929;27;20044;-57
2023/08/30 00:31:16;;;;;;;4.82;3.22;;;17.00;98.10;;;;;;4250334;27;20100;-59
2023/08/30 00:33:20;;;;;;;5.10;3.15;;;17.10;98.10;;;;;;4232526;28;20131;-59
2023/08/30 00:35:22;;;;;;;7.25;3.28;;;17.10;98.00;;;;;;4249922;27;20062;-58
2023/08/30 00:37:25;;;;;;;7.25;3.60;;;17.10;98.00;;;;;;4249327;27;20489;-58
2023/08/30 00:39:28;;;;;;;5.07;3.05;;;17.10;98.00;;;;;;4250282;27;20043;-60
2023/08/30 00:41:30;;;;;;;7.40;3.25;;;17.10;98.00;;;;;;4250083;27;20386;-60
2023/08/30 00:43:33;;;;;;;4.68;2.90;;;17.10;97.90;;;;;;4249907;27;20096;-59
2023/08/30 00:45:39;;;;;;;4.60;3.00;;;17.10;98.00;;;;;;4249845;27;20043;-59
2023/08/30 00:47:43;;;;;;;3.92;2.60;;;17.10;98.00;;;;;;4249132;27;20043;-59
2023/08/30 00:49:46;;;;;;;3.97;2.53;;;17.10;97.90;;;;;;4249638;27;20044;-59
2023/08/30 00:51:48;;;;;;;4.78;2.95;;;17.20;97.90;;;;;;4249762;27;20046;-58
2023/08/30 00:53:50;;;;;;;5.38;3.00;;;17.20;97.80;;;;;;4249761;27;20043;-58
2023/08/30 00:55:53;;;;;;;6.55;3.20;;;17.30;97.80;;;;;;4250113;27;20078;-57
2023/08/30 00:57:55;;;;;;;4.35;2.47;;;17.30;97.80;;;;;;4248999;27;20133;-59
2023/08/30 00:59:58;;;;;;;5.32;2.50;;;17.30;97.70;;;;;;4250244;27;20047;-60
2023/08/30 01:02:03;;;;;;;4.70;3.05;;;17.40;97.60;;;;;;4251694;27;20043;-66
2023/08/30 01:04:05;;;;;;;4.15;2.90;;;17.40;97.50;;;;;;4251398;27;20049;-63
2023/08/30 01:06:07;;;;;;;4.88;2.90;;;17.40;97.40;;;;;;4251922;27;20104;-60
2023/08/30 01:08:11;;;;;;;2.97;2.10;;;17.50;97.30;;;;;;4250021;27;20065;-60
2023/08/30 01:10:13;;;;;;;5.78;2.60;;;17.50;97.30;;;;;;4249969;27;20055;-59
2023/08/30 01:12:22;;;;;;;5.13;2.70;;;17.50;97.10;;;;;;4249733;27;20062;-58
2023/08/30 01:14:34;;;;;;;4.70;2.55;;;17.60;97.10;;;;;;4249368;27;20047;-56
2023/08/30 01:16:37;;;;;;;5.07;2.78;;;17.60;97.10;;;;;;4248667;27;20050;-55
2023/08/30 01:18:40;;;;;;;4.38;2.47;;;17.50;97.00;;;;;;4248705;27;20469;-56
2023/08/30 01:20:44;;;;;;;4.22;2.35;;;17.60;97.00;;;;;;4249555;27;20051;-59
2023/08/30 01:22:55;;;;;;;3.83;2.53;;;17.60;96.90;;;;;;4249255;27;20139;-55
2023/08/30 01:25:08;;;;;;;2.85;2.25;;;17.60;96.90;;;;;;4249238;27;20113;-54
2023/08/30 01:27:13;;;;;;;5.20;2.90;;;17.60;96.80;;;;;;4229979;28;20039;-56
2023/08/30 01:29:16;;;;;;;;;;;17.60;96.70;;;;;;4249966;27;20092;-56
2023/08/30 01:31:19;;;;;;;5.55;2.60;;;17.60;96.70;;;;;;4249523;27;19919;-65
2023/08/30 01:33:23;;;;;;;3.72;2.08;;;17.60;96.70;;;;;;4249433;27;20051;-60
2023/08/30 01:35:32;;;;;;;3.47;2.45;;;17.60;96.80;;;;;;4249780;27;20047;-57
2023/08/30 01:37:35;;;;;;;3.63;2.40;;;17.70;97.00;;;;;;4248364;27;20139;-57
2023/08/30 01:39:38;;;;;;;4.53;2.30;;;17.60;96.70;;;;;;4249164;27;20134;-56
2023/08/30 01:41:40;;;;;;;3.30;2.20;;;17.70;96.60;;;;;;4249077;27;20055;-57
2023/08/30 01:43:44;;;;;;;4.45;2.30;;;17.60;96.60;;;;;;4248987;27;20059;-56
2023/08/30 01:45:48;;;;;;;3.20;2.27;;;17.70;96.60;;;;;;4249233;27;20187;-56
2023/08/30 01:47:52;;;;;;;4.80;2.20;;;17.70;96.80;;;;;;4212782;28;20071;-56
2023/08/30 01:49:56;;;;;;;4.95;2.45;;;17.70;96.60;;;;;;4248893;27;20046;-55
2023/08/30 01:51:58;;;;;;;4.88;2.20;;;17.70;96.70;;;;;;4249029;27;20118;-56
2023/08/30 01:54:03;;;;;;;4.72;2.75;;;17.70;96.50;;;;;;4249138;27;20062;-57
2023/08/30 01:56:06;;;;;;;3.35;2.50;;;17.70;96.50;;;;;;4249095;27;20047;-56
2023/08/30 01:58:09;;;;;;;4.30;2.40;;;17.70;96.40;;;;;;4248051;27;20067;-56
2023/08/30 02:00:14;;;;;;;5.45;2.00;;;17.70;96.40;;;;;;4248993;27;20047;-57
2023/08/30 02:02:16;;;;;;;3.38;2.28;;;17.80;96.30;;;;;;4248602;27;20047;-56
2023/08/30 02:04:19;;;;;;;4.57;2.25;;;17.80;96.20;;;;;;4248803;27;20408;-57
2023/08/30 02:06:26;;;;;;;5.55;2.40;;;17.80;96.20;;;;;;4249215;27;20043;-59
2023/08/30 02:08:36;;;;;;;4.15;1.90;;;17.80;96.50;;;;;;4249320;27;20499;-58
2023/08/30 02:10:44;;;;;;;3.83;2.35;;;17.80;96.10;;;;;;4249960;27;20118;-58
2023/08/30 02:12:49;;;;;;;2.83;1.90;;;17.80;96.10;;;;;;4249331;27;20079;-57
2023/08/30 02:14:52;;;;;;;;;;;17.80;96.10;;;;;;4248970;27;20529;-57
2023/08/30 02:16:56;;;;;;;3.47;2.22;;;17.80;96.20;;;;;;4247376;27;19927;-57
2023/08/30 02:18:58;;;;;;;4.82;2.45;;;17.70;96.20;;;;;;4248029;27;20051;-60
2023/08/30 02:21:01;;;;;;;5.82;2.58;;;17.80;96.20;;;;;;4248253;27;20054;-57
2023/08/30 02:23:03;;;;;;;2.95;2.08;;;17.80;96.20;;;;;;4248166;27;20054;-58
2023/08/30 02:25:16;;;;;;;4.03;2.38;;;17.80;96.20;;;;;;4248191;27;20058;-57
2023/08/30 02:27:19;;;;;;;5.10;2.22;;;17.70;96.10;;;;;;4247446;27;20047;-57
2023/08/30 02:29:23;;;;;;;4.43;2.20;;;17.80;96.00;;;;;;4248334;27;20054;-58
2023/08/30 02:31:25;;;;;;;3.22;2.10;;;17.70;96.10;;;;;;4248030;27;20125;-58
2023/08/30 02:33:29;;;;;;;5.25;2.20;;;17.80;96.10;;;;;;4248167;27;20043;-62
2023/08/30 02:35:31;;;;;;;3.97;2.00;;;17.80;96.00;;;;;;4248326;27;20051;-58
2023/08/30 02:37:33;;;;;;;4.00;2.03;;;17.70;96.20;;;;;;4229029;28;20067;-57
2023/08/30 02:39:35;;;;;;;4.13;2.33;;;17.70;96.00;;;;;;4248233;27;20067;-57
2023/08/30 02:41:38;;;;;;;4.40;2.25;;;17.70;95.90;;;;;;4247967;27;20412;-57
2023/08/30 02:43:40;;;;;;;4.18;2.00;;;17.80;95.90;;;;;;4248192;27;20482;-57
2023/08/30 02:45:43;;;;;;;6.05;2.20;;;17.70;95.80;;;;;;4247798;27;20047;-57
2023/08/30 02:47:45;;;;;;;4.10;2.45;;;17.70;95.80;;;;;;4230664;28;20508;-58
2023/08/30 02:49:50;;;;;;;3.47;1.98;;;17.70;95.80;;;;;;4231422;28;20180;-60
2023/08/30 02:51:52;;;;;;;4.03;2.30;;;17.70;95.80;;;;;;4249843;27;20058;-59
2023/08/30 02:53:54;;;;;;;6.25;2.15;;;17.70;95.80;;;;;;4231067;28;20397;-63
2023/08/30 02:55:57;;;;;;;4.53;1.98;;;17.70;95.80;;;;;;4248661;27;20043;-57
2023/08/30 02:57:59;;;;;;;5.03;2.03;;;17.70;95.70;;;;;;4247580;27;20130;-57
2023/08/30 03:00:05;;;;;;;4.05;2.05;;;17.70;95.80;;;;;;4247859;27;20062;-57
2023/08/30 03:02:08;;;;;;;4.25;2.00;;;17.70;95.80;;;;;;4247870;27;20047;-57
2023/08/30 03:04:10;;;;;;;3.42;1.98;;;17.70;95.80;;;;;;4247679;27;20047;-60
2023/08/30 03:06:14;;;;;;;5.18;2.55;;;17.70;95.90;;;;;;4247667;27;20074;-57
2023/08/30 03:08:16;;;;;;;5.05;2.10;;;17.70;95.80;;;;;;4246932;27;20070;-58
2023/08/30 03:10:18;;;;;;;2.72;2.00;;;17.70;95.70;;;;;;4247719;27;20050;-57
2023/08/30 03:12:20;;;;;;;3.05;2.00;;;17.70;95.70;;;;;;4247701;27;20067;-57
2023/08/30 03:14:22;;;;;;;4.40;1.75;;;17.70;95.70;;;;;;4247690;27;20063;-57
2023/08/30 03:16:25;;;;;;;7.38;2.35;;;17.70;95.70;;;;;;4247628;27;20043;-57
2023/08/30 03:18:27;;;;;;;3.72;2.20;;;17.60;95.80;;;;;;4246423;27;20055;-57
2023/08/30 03:20:29;;;;;;;2.35;2.10;;;17.60;95.90;;;;;;4247623;28;20096;-57
2023/08/30 03:22:32;;;;;;;3.13;2.00;;;17.60;95.90;;;;;;4247110;28;20047;-57
2023/08/30 03:24:35;;;;;;;4.35;2.00;;;17.60;96.10;;;;;;4229302;28;20055;-57
2023/08/30 03:26:37;;;;;;;5.78;2.40;;;17.50;96.10;;;;;;4247451;28;20049;-55
2023/08/30 03:28:40;;;;;;;2.83;1.80;;;17.50;96.20;;;;;;4246229;28;20047;-55
2023/08/30 03:30:42;;;;;;;2.72;2.22;;;17.60;96.20;;;;;;4247688;28;20118;-56
2023/08/30 03:32:44;;;;;;;5.63;2.28;;;17.60;96.30;;;;;;4247505;28;20420;-55
2023/08/30 03:34:48;;;;;;;6.45;2.80;;;17.60;96.40;;;;;;4229203;28;20044;-55
2023/08/30 03:36:54;;;;;;;3.88;2.20;;;17.60;96.60;;;;;;4228618;28;20048;-56
2023/08/30 03:38:57;;;;;;;4.13;2.35;;;17.50;96.70;;;;;;4247451;28;20062;-56
2023/08/30 03:40:59;;;;;;;3.88;2.22;;;17.60;96.80;;;;;;4247303;28;20142;-56
2023/08/30 03:43:01;;;;;;;6.10;2.60;;;17.50;96.90;;;;;;4246986;28;20039;-56
2023/08/30 03:45:05;;;;;;;4.30;2.08;;;17.50;96.90;;;;;;4247242;28;20051;-56
2023/08/30 03:47:07;;;;;;;3.50;2.37;;;17.50;96.90;;;;;;4246472;28;20075;-56
2023/08/30 03:49:09;;;;;;;5.28;2.42;;;17.50;97.20;;;;;;4247511;28;20446;-56
2023/08/30 03:51:12;;;;;;;2.33;1.77;;;17.50;97.20;;;;;;4248397;28;20099;-57
2023/08/30 03:53:15;;;;;;;5.18;2.40;;;17.40;97.40;;;;;;4230312;28;20067;-57
2023/08/30 03:55:19;;;;;;;4.15;2.13;;;17.50;97.50;;;;;;4246944;28;20126;-57
2023/08/30 03:57:21;;;;;;;3.90;2.40;;;17.50;97.60;;;;;;4246514;28;20073;-57
2023/08/30 03:59:28;;;;;;;4.00;2.40;;;17.40;97.60;;;;;;4229039;28;20039;-57
2023/08/30 04:01:30;;;;;;;5.35;2.90;;;17.40;97.70;;;;;;4249562;27;20047;-56
2023/08/30 04:03:32;;;;;;;4.53;2.97;;;17.40;97.70;;;;;;4250429;27;20130;-56
2023/08/30 04:05:34;;;;;;;8.68;2.45;;;17.40;97.80;;;;;;4250540;27;20112;-57
2023/08/30 04:07:36;;;;;;;3.30;2.15;;;17.50;97.80;;;;;;4249364;27;20066;-56
2023/08/30 04:09:38;;;;;;;5.38;3.20;;;17.50;97.70;;;;;;4250593;27;20039;-55
2023/08/30 04:11:43;;;;;;;5.40;2.53;;;17.50;97.80;;;;;;4250409;27;20431;-56
2023/08/30 04:13:45;;;;;;;3.85;2.28;;;17.50;97.80;;;;;;4250075;27;20499;-56
2023/08/30 04:15:48;;;;;;;9.73;2.72;;;17.50;97.80;;;;;;4244095;27;20042;-56
2023/08/30 04:17:50;;;;;;;7.18;2.58;;;17.50;97.80;;;;;;4266479;27;20070;-57
2023/08/30 04:19:52;;;;;;;4.57;2.60;;;17.50;97.90;;;;;;4267471;27;20130;-56
2023/08/30 04:21:54;;;;;;;5.68;2.88;;;17.50;97.90;;;;;;4265647;27;20054;-56
2023/08/30 04:23:56;;;;;;;5.68;2.70;;;17.50;97.90;;;;;;4267239;27;20034;-56
2023/08/30 04:25:58;;;;;;;4.57;2.83;;;17.50;98.00;;;;;;4267558;27;20042;-57
2023/08/30 04:28:02;;;;;;;5.22;2.60;;;17.50;97.90;;;;;;4265827;27;20047;-57
2023/08/30 04:30:05;;;;;;;5.70;3.05;;;17.50;98.00;;;;;;4267450;27;20047;-57
2023/08/30 04:32:07;;;;;;;7.53;2.83;;;17.50;98.10;;;;;;4267538;27;20077;-55
2023/08/30 04:34:09;;;;;;;11.15;3.15;;;17.50;98.00;;;;;;4267954;27;20440;-59
2023/08/30 04:36:11;;;;;;;6.85;3.10;;;17.50;98.10;;;;;;4267632;27;20423;-56
2023/08/30 04:38:14;;;;;;;6.43;2.55;;;17.50;98.10;;;;;;4267323;27;20126;-56
2023/08/30 04:40:16;;;;;;;5.78;2.72;;;17.50;98.10;;;;;;4267597;27;20047;-56
2023/08/30 04:42:19;;;;;;;4.07;2.38;;;17.50;98.10;;;;;;4267214;27;20067;-56
2023/08/30 04:44:27;;;;;;;;;;;17.50;98.10;;;;;;4267869;27;20055;-56
2023/08/30 04:46:30;;;;;;;5.75;2.38;;;17.50;98.20;;;;;;4267127;27;19919;-57
2023/08/30 04:48:32;;;;;;;6.40;2.97;;;17.50;98.30;;;;;;4266238;27;20485;-56
2023/08/30 04:50:34;;;;;;;8.27;3.22;;;17.50;98.30;;;;;;4267134;27;20050;-56
2023/08/30 04:52:36;;;;;;;7.05;3.15;;;17.50;98.30;;;;;;4267418;27;20472;-57
2023/08/30 04:54:39;;;;;;;7.80;3.08;;;17.50;98.30;;;;;;4266978;27;20136;-56
2023/08/30 04:56:41;;;;;;;10.05;3.50;;;17.50;98.40;;;;;;4266372;27;20102;-56
2023/08/30 04:58:43;;;;;;;7.13;3.13;;;17.50;98.50;;;;;;4247563;27;20070;-56
2023/08/30 05:00:49;;;;;;;7.80;3.03;;;17.50;98.60;;;;;;4266759;27;20051;-57
2023/08/30 05:02:51;;;;;;;6.35;3.03;;;17.50;98.60;;;;;;4266962;27;20045;-55
2023/08/30 05:04:53;;;;;;;7.82;3.20;;;17.50;98.60;;;;;;4266907;27;20043;-59
2023/08/30 05:06:55;;;;;;;6.78;3.50;;;17.50;98.70;;;;;;4266705;27;20126;-56
2023/08/30 05:08:58;;;;;;;8.77;3.47;;;17.50;98.70;;;;;;4265874;27;20043;-56
2023/08/30 05:11:00;;;;;;;6.50;3.17;;;17.50;98.60;;;;;;4266388;27;20045;-56
2023/08/30 05:13:03;;;;;;;5.63;2.83;;;17.50;98.70;;;;;;4266601;27;20050;-56
2023/08/30 05:15:06;;;;;;;6.82;3.25;;;17.50;98.80;;;;;;4260485;27;20131;-57
2023/08/30 05:17:10;;;;;;;6.10;3.33;;;17.50;98.80;;;;;;4249332;27;20058;-58
2023/08/30 05:19:12;;;;;;;5.75;2.80;;;17.50;98.80;;;;;;4249388;27;20059;-57
2023/08/30 05:21:15;;;;;;;5.95;3.13;;;17.50;98.80;;;;;;4249631;27;20484;-57
2023/08/30 05:23:17;;;;;;;6.78;2.88;;;17.50;98.80;;;;;;4249387;27;20571;-57
2023/08/30 05:25:19;;;;;;;5.65;3.05;;;17.60;98.80;;;;;;4249108;27;20487;-57
2023/08/30 05:27:21;;;;;;;8.27;3.13;;;17.60;98.80;;;;;;4248533;27;20047;-57
2023/08/30 05:29:23;;;;;;;8.90;3.55;;;17.50;98.80;;;;;;4230259;28;20074;-59
2023/08/30 05:31:25;;;;;;;5.47;3.13;;;17.50;98.90;;;;;;4249657;27;20047;-57
2023/08/30 05:33:29;;;;;;;7.25;2.88;;;17.50;98.90;;;;;;4250282;27;20121;-59
2023/08/30 05:35:31;;;;;;;7.50;3.22;;;17.60;98.90;;;;;;4250697;27;20043;-57
2023/08/30 05:37:33;;;;;;;7.95;3.33;;;17.60;99.00;;;;;;4248341;27;20127;-58
2023/08/30 05:39:35;;;;;;;8.95;3.05;;;17.60;98.90;;;;;;4248616;27;20137;-57
2023/08/30 05:41:37;;;;;;;11.23;3.15;;;17.60;99.00;;;;;;4249105;27;20123;-57
2023/08/30 05:43:39;;;;;;;5.82;3.10;;;17.60;99.40;;;;;;4248865;27;20040;-57
2023/08/30 05:45:41;;;;;;;5.93;2.95;;;17.60;99.40;;;;;;4249030;27;20484;-56
2023/08/30 05:47:43;;;;;;;5.28;2.58;;;17.60;99.40;;;;;;4248553;27;20047;-57
2023/08/30 05:49:47;;;;;;;6.82;3.13;;;17.60;99.50;;;;;;4248466;27;20084;-57
2023/08/30 05:51:49;;;;;;;7.70;3.33;;;17.60;99.40;;;;;;4249287;27;20100;-57
2023/08/30 05:53:51;;;;;;;6.25;2.97;;;17.60;99.40;;;;;;4246989;27;20473;-57
2023/08/30 05:55:54;;;;;;;5.65;3.00;;;17.60;99.30;;;;;;4248962;27;20046;-57
2023/08/30 05:57:56;;;;;;;6.70;2.70;;;17.60;99.50;;;;;;4248035;27;20535;-57
2023/08/30 05:59:58;;;;;;;4.28;2.75;;;17.60;99.30;;;;;;4248852;27;20047;-57
2023/08/30 06:02:00;;;;;;;5.20;3.00;;;17.60;99.30;;;;;;4249166;27;20043;-57
2023/08/30 06:04:04;;;;;;;4.85;2.70;;;17.50;99.30;;;;;;4249087;27;20043;-56
2023/08/30 06:06:08;;;;;;;9.95;2.80;;;17.50;99.40;;;;;;4231015;28;20069;-56
2023/08/30 06:08:10;;;;;;;9.77;2.80;;;17.50;99.40;;;;;;4247669;27;20039;-57
2023/08/30 06:10:12;;;;;;;5.50;2.72;;;17.60;99.60;;;;;;4248993;27;20489;-57
2023/08/30 06:12:14;;;;;;;7.95;3.00;;;17.50;99.90;;;;;;4230684;28;20489;-56
2023/08/30 06:14:16;;;;;;;8.95;3.38;;;17.50;99.90;;;;;;4249720;27;20081;-57
2023/08/30 06:16:18;;;;;;;4.97;2.97;;;17.50;99.90;;;;;;4247921;27;20069;-57
2023/08/30 06:18:21;;;;;;;4.03;2.55;;;17.50;99.90;;;;;;4264964;27;20062;-62
2023/08/30 06:20:23;;;;;;;7.63;2.70;;;17.50;99.90;;;;;;4265980;27;20061;-64
2023/08/30 06:22:26;;;;;;;6.00;3.20;;;17.50;99.90;;;;;;4232277;28;20048;-61
2023/08/30 06:24:28;;;;;;;5.63;2.38;;;17.60;99.90;;;;;;4266217;27;20047;-57
2023/08/30 06:26:31;;;;;;;4.70;2.85;;;17.60;99.90;;;;;;4266566;27;20150;-57
2023/08/30 06:28:33;;;;;;;6.43;3.10;;;17.70;99.90;;;;;;4265037;27;20507;-57
2023/08/30 06:30:35;;;;;;;4.32;2.88;;;17.70;99.90;;;;;;4247174;27;20046;-57
2023/08/30 06:32:37;;;;;;;5.53;2.60;;;17.70;99.90;;;;;;4265276;27;20051;-56
2023/08/30 06:34:39;;;;;;;7.30;2.97;;;17.70;99.90;;;;;;4265246;27;20130;-62
2023/08/30 06:36:41;;;;;;;7.93;2.83;;;17.70;99.90;;;;;;4265438;27;20054;-57
2023/08/30 06:38:44;;;;;;;6.68;2.67;;;17.70;99.90;;;;;;4264036;27;20067;-56
2023/08/30 06:40:46;;;;;;;6.38;2.80;;;17.80;99.90;;;;;;4265462;27;20241;-57
2023/08/30 06:42:48;;;;;;;8.90;2.97;;;17.80;99.90;;;;;;4265304;27;20445;-56
2023/08/30 06:44:51;;;;;;;7.20;3.05;;;17.80;99.90;;;;;;4265026;27;20039;-59
2023/08/30 06:46:54;;;;;;;6.72;2.80;;;17.90;99.90;;;;;;4246823;27;20054;-58
2023/08/30 06:48:56;;;;;;;5.50;2.63;;;17.90;99.90;;;;;;4264080;27;20070;-58
2023/08/30 06:50:58;;;;;;;7.90;3.10;;;17.90;99.90;;;;;;4265174;27;20403;-59
2023/08/30 06:53:01;;;;;;;11.18;3.40;;;18.00;99.80;;;;;;4264634;27;20066;-58
2023/08/30 06:55:05;;;;;;;9.68;3.33;;;18.10;99.70;;;;;;4246802;27;20053;-58
2023/08/30 06:57:08;;;;;;;7.13;2.63;;;18.00;99.60;;;;;;4265117;27;20050;-58
2023/08/30 06:59:10;;;;;;;3.95;2.67;;;18.00;99.50;;;;;;4263950;27;20038;-58
2023/08/30 07:01:12;;;;;;;6.88;3.10;;;18.10;99.80;;;;;;4264754;27;20480;-58
2023/08/30 07:03:14;;;;;;;4.40;2.72;;;18.10;99.60;;;;;;4264795;27;20176;-59
2023/08/30 07:05:17;;;;;;;5.72;2.28;;;18.10;99.60;;;;;;4264582;27;20255;-58
2023/08/30 07:07:19;;;;;;;6.40;2.75;;;18.10;99.50;;;;;;4264354;27;20186;-58
2023/08/30 07:09:23;;;;;;;7.13;2.65;;;18.10;99.60;;;;;;4263748;27;20047;-58
2023/08/30 07:11:26;;;;;;;4.88;2.03;;;18.00;99.60;;;;;;4264757;27;20062;-58
2023/08/30 07:13:35;;;;;;;7.28;2.60;;;18.00;99.60;;;;;;4247635;27;20139;-58
2023/08/30 07:15:39;;;;;;;4.75;2.03;;;18.00;99.60;;;;;;4254471;27;20407;-63
2023/08/30 07:17:42;;;;;;;6.63;2.30;;;18.00;99.60;;;;;;4246427;27;20051;-58
2023/08/30 07:19:54;;;;;;;4.10;2.25;;;18.00;99.80;;;;;;4247276;27;20066;-58
2023/08/30 07:21:56;;;;;;;4.93;2.25;;;18.00;99.90;;;;;;4247306;27;20456;-58
2023/08/30 07:23:59;;;;;;;5.22;1.85;;;18.00;99.80;;;;;;4247453;28;20104;-58
2023/08/30 07:26:01;;;;;;;4.90;2.40;;;18.10;99.70;;;;;;4247404;28;20138;-58
2023/08/30 07:28:05;;;;;;;3.25;2.40;;;18.10;99.80;;;;;;4228459;28;20468;-58
2023/08/30 07:30:08;;;;;;;8.70;2.17;;;18.10;99.80;;;;;;4247379;28;20065;-57
2023/08/30 07:32:10;;;;;;;2.70;1.95;;;18.20;99.40;;;;;;4247222;28;20088;-57
2023/08/30 07:34:13;;;;;;;2.53;1.65;;;18.20;99.40;;;;;;4247448;27;20043;-58
2023/08/30 07:36:15;;;;;;;7.57;2.22;;;18.20;99.40;;;;;;4250739;27;20058;-58
2023/08/30 07:38:17;;;;;;;4.57;1.90;;;18.20;99.20;;;;;;4250000;27;20119;-57
2023/08/30 07:40:24;;;;;;;4.20;2.00;;;18.30;99.20;;;;;;4250969;27;20050;-58
2023/08/30 07:42:27;;;;;;;3.95;2.00;;;18.30;99.30;;;;;;4250974;27;20047;-58
2023/08/30 07:44:30;;;;;;;3.78;2.00;;;18.30;98.80;;;;;;4250926;27;20068;-58
2023/08/30 07:46:32;;;;;;;4.20;1.83;;;18.40;99.00;;;;;;4250825;27;20146;-58
2023/08/30 07:48:34;;;;;;;5.22;1.85;;;18.40;98.70;;;;;;4249880;27;20464;-59
2023/08/30 07:50:36;;;;;;;13.68;2.25;;;18.60;98.60;;;;;;4250400;27;20393;-58
2023/08/30 07:52:38;;;;;;;3.35;1.80;;;18.80;98.50;;;;;;4250784;27;20066;-57
2023/08/30 07:54:48;;;;;;;4.63;2.15;;;18.90;98.10;;;;;;4250384;27;20047;-58
2023/08/30 07:56:50;;;;;;;5.13;1.83;;;19.00;98.00;;;;;;4250599;27;20446;-56
2023/08/30 07:58:53;;;;;;;3.78;1.83;;;19.00;97.80;;;;;;4231434;28;20445;-55
2023/08/30 08:00:57;;;;;;;3.10;1.92;;;18.90;97.80;;;;;;4250772;27;20396;-57
2023/08/30 08:02:59;;;;;;;4.55;1.95;;;18.90;97.70;;;;;;4232109;28;20075;-55
2023/08/30 08:05:02;;;;;;;36.47;3.45;;;18.80;97.70;;;;;;4250179;27;20118;-56
2023/08/30 08:07:04;;;;;;;12.60;2.47;;;18.70;97.80;;;;;;4241126;27;20070;-56
2023/08/30 08:09:07;;;;;;;4.55;2.10;;;18.70;98.50;;;;;;4267781;27;20125;-55
2023/08/30 08:11:09;;;;;;;3.53;1.90;;;18.80;98.30;;;;;;4268671;27;20042;-66
2023/08/30 08:13:12;;;;;;;4.43;1.90;;;18.80;98.30;;;;;;4267572;27;20081;-60
2023/08/30 08:15:15;;;;;;;5.65;1.88;;;18.80;98.00;;;;;;4260078;27;20224;-56
2023/08/30 08:17:19;;;;;;;5.75;1.85;;;18.90;98.00;;;;;;4250409;27;20529;-56
2023/08/30 08:19:22;;;;;;;4.85;2.30;;;18.90;97.70;;;;;;4248736;27;20466;-57
2023/08/30 08:21:27;;;;;;;6.40;2.08;;;19.00;97.70;;;;;;4250433;27;20501;-58
2023/08/30 08:23:29;;;;;;;4.78;1.80;;;19.20;97.00;;;;;;4250223;27;20065;-57
2023/08/30 08:25:31;;;;;;;3.05;1.83;;;19.20;97.00;;;;;;4250091;27;20042;-56
2023/08/30 08:27:33;;;;;;;6.13;1.85;;;19.20;96.90;;;;;;4250080;27;20070;-57
2023/08/30 08:29:35;;;;;;;3.45;1.90;;;19.20;96.90;;;;;;4249241;27;20043;-57
2023/08/30 08:31:38;;;;;;;2.78;1.75;;;19.30;96.80;;;;;;4250208;27;20408;-58
2023/08/30 08:33:43;;;;;;;3.72;1.80;;;19.40;96.60;;;;;;4249810;27;20140;-57
2023/08/30 08:35:45;;;;;;;7.18;2.05;;;19.50;96.40;;;;;;4255966;27;20058;-58
2023/08/30 08:37:47;;;;;;;4.57;2.20;;;19.50;96.00;;;;;;4251043;27;20076;-59
2023/08/30 08:39:50;;;;;;;3.65;1.88;;;19.50;95.90;;;;;;4253475;27;20115;-57
2023/08/30 08:41:53;;;;;;;3.83;1.77;;;19.50;95.80;;;;;;4258721;27;20051;-57
2023/08/30 08:43:55;;;;;;;5.97;2.05;;;19.40;96.00;;;;;;4263629;27;20187;-57
2023/08/30 08:46:00;;;;;;;7.47;2.30;;;19.50;96.00;;;;;;4257105;27;20463;-58
2023/08/30 08:48:04;;;;;;;6.40;1.88;;;19.60;95.70;;;;;;4256163;27;20050;-57
2023/08/30 08:50:09;;;;;;;7.15;1.83;;;19.60;95.40;;;;;;4258087;27;20427;-57
2023/08/30 08:52:11;;;;;;;3.30;2.00;;;19.70;95.10;;;;;;4258135;27;20047;-57
2023/08/30 08:54:32;;;;;;;8.00;2.13;;;19.80;95.10;;;;;;4254256;27;20051;-57
2023/08/30 08:56:34;;;;;;;4.00;1.85;;;19.90;94.80;;;;;;4250130;27;20047;-59
2023/08/30 08:58:38;;;;;;;5.97;2.17;;;19.90;94.60;;;;;;4265369;27;20042;-58
2023/08/30 09:00:42;;;;;;;;;;;20.10;94.50;;;;;;4262608;27;20047;-60
2023/08/30 09:02:46;;;;;;;10.70;2.28;;;20.10;93.90;;;;;;4264933;27;19926;-61
2023/08/30 09:04:48;;;;;;;5.03;2.05;;;20.10;94.00;;;;;;4266711;27;20058;-58
2023/08/30 09:06:52;;;;;;;3.83;1.80;;;20.20;93.80;;;;;;4266864;27;20069;-57
2023/08/30 09:08:54;;;;;;;9.43;2.45;;;20.20;92.80;;;;;;4265158;27;20062;-56
2023/08/30 09:10:56;;;;;;;8.30;2.60;;;20.20;92.90;;;;;;4255065;27;20396;-56
2023/08/30 09:12:59;;;;;;;5.15;2.28;;;20.20;92.80;;;;;;4258945;27;20043;-58
2023/08/30 09:15:01;;;;;;;8.27;2.10;;;20.30;92.60;;;;;;4253508;27;20049;-57
2023/08/30 09:17:03;;;;;;;7.88;2.38;;;20.50;92.40;;;;;;4266385;27;20481;-60
2023/08/30 09:19:05;;;;;;;5.05;1.92;;;20.50;91.90;;;;;;4265149;27;20484;-57
2023/08/30 09:21:11;;;;;;;10.18;2.40;;;20.50;91.80;;;;;;4266434;27;20049;-57
2023/08/30 09:23:21;;;;;;;8.70;2.45;;;20.50;91.70;;;;;;4266426;27;20359;-56
2023/08/30 09:25:27;;;;;;;8.57;2.22;;;20.40;91.30;;;;;;4265910;27;20185;-58
2023/08/30 09:27:33;;;;;;;4.65;2.00;;;20.40;91.80;;;;;;4256591;27;20066;-58
2023/08/30 09:29:35;;;;;;;8.73;2.55;;;20.40;91.90;;;;;;4229669;28;20127;-59
2023/08/30 09:31:40;;;;;;;7.72;2.40;;;20.50;91.90;;;;;;4248725;27;20126;-59
2023/08/30 09:33:42;;;;;;;7.63;2.05;;;20.80;91.60;;;;;;4249016;27;20043;-58
2023/08/30 09:35:45;;;;;;;6.68;1.70;;;20.80;91.70;;;;;;4249173;27;20047;-59
2023/08/30 09:37:47;;;;;;;6.05;2.10;;;20.80;91.10;;;;;;4248786;27;20043;-58
2023/08/30 09:39:51;;;;;;;9.73;2.60;;;20.80;91.00;;;;;;4248117;27;20134;-59
2023/08/30 09:41:54;;;;;;;5.97;2.07;;;20.90;91.10;;;;;;4249443;27;20053;-61
2023/08/30 09:43:57;;;;;;;6.75;2.00;;;20.80;90.80;;;;;;4249043;27;20099;-59
2023/08/30 09:46:14;;;;;;;6.18;2.08;;;20.80;90.60;;;;;;4256539;27;20047;-58
2023/08/30 09:48:20;;;;;;;9.45;2.35;;;20.60;90.50;;;;;;4264308;27;20464;-59
2023/08/30 09:50:23;;;;;;;7.10;2.25;;;20.70;90.70;;;;;;4250322;27;20053;-56
2023/08/30 09:52:25;;;;;;;8.63;2.92;;;20.80;90.00;;;;;;4248598;27;20100;-59
2023/08/30 09:54:29;;;;;;;7.03;2.45;;;20.80;89.40;;;;;;4249234;27;20046;-63
2023/08/30 09:56:36;;;;;;;9.40;2.97;;;20.80;89.50;;;;;;4248763;27;20122;-57
2023/08/30 09:58:40;;;;;;;5.80;2.13;;;20.90;87.90;;;;;;4246398;27;20043;-58
2023/08/30 10:00:43;;;;;;;5.95;2.30;;;21.00;88.40;;;;;;4229722;28;20039;-58
2023/08/30 10:02:45;;;;;;;8.75;2.60;;;20.80;88.80;;;;;;4248506;27;20047;-59
2023/08/30 10:05:08;;;;;;;7.15;2.50;;;20.90;87.70;;;;;;4248443;27;20043;-57
2023/08/30 10:07:11;;;;;;;8.27;2.47;;;20.90;88.60;;;;;;4247742;27;20155;-56
2023/08/30 10:09:15;;;;;;;9.43;2.75;;;20.90;88.50;;;;;;4247334;27;20492;-56
2023/08/30 10:11:21;;;;;;;8.25;2.90;;;21.00;87.10;;;;;;4252851;27;20080;-55
2023/08/30 10:13:25;;;;;;;11.23;2.90;;;21.00;86.40;;;;;;4265651;27;20117;-58
2023/08/30 10:15:29;;;;;;;8.73;2.20;;;21.00;86.70;;;;;;4256214;27;20035;-56
2023/08/30 10:17:34;;;;;;;9.45;2.80;;;20.80;85.60;;;;;;4248331;27;20047;-56
2023/08/30 10:19:37;;;;;;;8.93;2.53;;;20.80;84.30;;;;;;4247295;27;20484;-56
2023/08/30 10:21:41;;;;;;;7.60;2.80;;;20.80;85.80;;;;;;4255775;27;20403;-56
2023/08/30 10:23:46;;;;;;;8.70;3.03;;;20.70;85.10;;;;;;4248369;27;20046;-56
2023/08/30 10:25:49;;;;;;;10.15;3.15;;;20.70;85.40;;;;;;4247960;27;20126;-58
2023/08/30 10:27:55;;;;;;;7.57;2.55;;;20.70;85.40;;;;;;4248179;27;20412;-58
2023/08/30 10:30:01;;;;;;;10.87;3.17;;;20.70;86.40;;;;;;4228574;28;20072;-56
2023/08/30 10:32:03;;;;;;;10.30;2.70;;;20.70;85.40;;;;;;4247783;27;20050;-57
2023/08/30 10:34:14;;;;;;;5.82;2.38;;;20.70;85.70;;;;;;4229916;28;20048;-56
2023/08/30 10:36:21;;;;;;;10.52;3.10;;;20.80;85.70;;;;;;4248626;27;20051;-56
2023/08/30 10:38:28;;;;;;;8.70;2.58;;;20.80;85.30;;;;;;4246351;27;20035;-58
2023/08/30 10:40:30;;;;;;;9.98;2.70;;;20.90;86.40;;;;;;4246914;27;20082;-58
2023/08/30 10:42:33;;;;;;;6.75;2.45;;;20.70;85.50;;;;;;4247813;27;20043;-59